sensor_id;sensor_type;location;lat;lon;timestamp;P1;durP1;ratioP1;P2;durP2;ratioP2
8482;SDS011;4278;42.668;23.312;2023-08-31T00:02:08;6.95;;;2.80;;
8482;SDS011;4278;42.668;23.312;2023-08-31T00:04:35;5.50;;;2.70;;
8482;SDS011;4278;42.668;23.312;2023-08-31T00:07:01;4.32;;;2.30;;
8482;SDS011;4278;42.668;23.312;2023-08-31T00:09:28;5.57;;;2.50;;
8482;SDS011;4278;42.668;23.312;2023-08-31T00:11:55;4.88;;;2.40;;
8482;SDS011;4278;42.668;23.312;2023-08-31T00:14:24;4.45;;;2.15;;
8482;SDS011;4278;42.668;23.312;2023-08-31T00:16:51;5.40;;;2.33;;
8482;SDS011;4278;42.668;23.312;2023-08-31T00:19:18;3.45;;;2.08;;
8482;SDS011;4278;42.668;23.312;2023-08-31T00:21:45;3.90;;;2.47;;
8482;SDS011;4278;42.668;23.312;2023-08-31T00:24:13;3.72;;;1.83;;
8482;SDS011;4278;42.668;23.312;2023-08-31T00:26:40;6.22;;;2.60;;
8482;SDS011;4278;42.668;23.312;2023-08-31T00:29:08;4.35;;;2.17;;
8482;SDS011;4278;42.668;23.312;2023-08-31T00:31:37;3.88;;;2.53;;
8482;SDS011;4278;42.668;23.312;2023-08-31T00:34:04;4.35;;;2.13;;
8482;SDS011;4278;42.668;23.312;2023-08-31T00:36:32;6.82;;;2.67;;
8482;SDS011;4278;42.668;23.312;2023-08-31T00:39:02;7.72;;;2.67;;
8482;SDS011;4278;42.668;23.312;2023-08-31T00:41:31;3.55;;;2.38;;
8482;SDS011;4278;42.668;23.312;2023-08-31T00:43:57;4.85;;;2.40;;
8482;SDS011;4278;42.668;23.312;2023-08-31T00:46:24;6.63;;;2.50;;
8482;SDS011;4278;42.668;23.312;2023-08-31T00:48:54;4.25;;;2.22;;
8482;SDS011;4278;42.668;23.312;2023-08-31T00:51:21;4.97;;;2.35;;
8482;SDS011;4278;42.668;23.312;2023-08-31T00:53:48;4.68;;;2.30;;
8482;SDS011;4278;42.668;23.312;2023-08-31T00:56:18;4.47;;;2.35;;
8482;SDS011;4278;42.668;23.312;2023-08-31T00:58:45;4.70;;;2.50;;
8482;SDS011;4278;42.668;23.312;2023-08-31T01:01:14;4.55;;;2.15;;
8482;SDS011;4278;42.668;23.312;2023-08-31T01:03:50;6.70;;;2.50;;
8482;SDS011;4278;42.668;23.312;2023-08-31T01:06:27;5.68;;;2.53;;
8482;SDS011;4278;42.668;23.312;2023-08-31T01:09:04;7.75;;;2.50;;
8482;SDS011;4278;42.668;23.312;2023-08-31T01:11:43;5.88;;;2.80;;
8482;SDS011;4278;42.668;23.312;2023-08-31T01:14:20;4.72;;;2.58;;
8482;SDS011;4278;42.668;23.312;2023-08-31T01:16:51;6.35;;;2.70;;
8482;SDS011;4278;42.668;23.312;2023-08-31T01:19:27;7.30;;;2.72;;
8482;SDS011;4278;42.668;23.312;2023-08-31T01:22:07;4.18;;;2.22;;
8482;SDS011;4278;42.668;23.312;2023-08-31T01:24:41;3.92;;;2.60;;
8482;SDS011;4278;42.668;23.312;2023-08-31T01:27:08;4.35;;;2.40;;
8482;SDS011;4278;42.668;23.312;2023-08-31T01:29:36;2.97;;;2.10;;
8482;SDS011;4278;42.668;23.312;2023-08-31T01:32:05;6.07;;;2.83;;
8482;SDS011;4278;42.668;23.312;2023-08-31T01:34:32;4.22;;;2.20;;
8482;SDS011;4278;42.668;23.312;2023-08-31T01:37:00;3.63;;;2.30;;
8482;SDS011;4278;42.668;23.312;2023-08-31T01:39:37;4.28;;;2.13;;
8482;SDS011;4278;42.668;23.312;2023-08-31T01:42:10;3.30;;;2.47;;
8482;SDS011;4278;42.668;23.312;2023-08-31T01:44:40;4.03;;;2.50;;
8482;SDS011;4278;42.668;23.312;2023-08-31T01:47:08;4.15;;;2.33;;
8482;SDS011;4278;42.668;23.312;2023-08-31T01:49:36;4.85;;;2.33;;
8482;SDS011;4278;42.668;23.312;2023-08-31T01:52:04;3.72;;;2.22;;
8482;SDS011;4278;42.668;23.312;2023-08-31T01:54:31;8.15;;;2.70;;
8482;SDS011;4278;42.668;23.312;2023-08-31T01:56:58;8.15;;;2.70;;
8482;SDS011;4278;42.668;23.312;2023-08-31T01:59:27;9.63;;;2.80;;
8482;SDS011;4278;42.668;23.312;2023-08-31T02:01:54;9.77;;;2.60;;
8482;SDS011;4278;42.668;23.312;2023-08-31T02:04:22;6.82;;;2.55;;
8482;SDS011;4278;42.668;23.312;2023-08-31T02:06:49;3.85;;;2.70;;
8482;SDS011;4278;42.668;23.312;2023-08-31T02:09:16;5.57;;;2.28;;
8482;SDS011;4278;42.668;23.312;2023-08-31T02:11:43;4.65;;;2.30;;
8482;SDS011;4278;42.668;23.312;2023-08-31T02:14:09;5.05;;;2.63;;
8482;SDS011;4278;42.668;23.312;2023-08-31T02:16:37;5.28;;;2.45;;
8482;SDS011;4278;42.668;23.312;2023-08-31T03:22:47;4.20;;;2.50;;
8482;SDS011;4278;42.668;23.312;2023-08-31T03:25:15;4.30;;;2.50;;
8482;SDS011;4278;42.668;23.312;2023-08-31T03:39:56;5.10;;;2.80;;
8482;SDS011;4278;42.668;23.312;2023-08-31T03:42:24;3.95;;;2.35;;
8482;SDS011;4278;42.668;23.312;2023-08-31T03:44:51;4.47;;;2.80;;
8482;SDS011;4278;42.668;23.312;2023-08-31T03:47:18;6.00;;;2.65;;
8482;SDS011;4278;42.668;23.312;2023-08-31T03:49:45;3.97;;;2.60;;
8482;SDS011;4278;42.668;23.312;2023-08-31T03:52:11;5.05;;;2.55;;
8482;SDS011;4278;42.668;23.312;2023-08-31T03:54:38;4.93;;;2.42;;
8482;SDS011;4278;42.668;23.312;2023-08-31T03:57:05;3.92;;;2.15;;
8482;SDS011;4278;42.668;23.312;2023-08-31T03:59:33;5.55;;;2.85;;
8482;SDS011;4278;42.668;23.312;2023-08-31T04:02:00;8.30;;;2.95;;
8482;SDS011;4278;42.668;23.312;2023-08-31T04:09:20;7.43;;;3.50;;
8482;SDS011;4278;42.668;23.312;2023-08-31T04:11:48;13.98;;;4.05;;
8482;SDS011;4278;42.668;23.312;2023-08-31T04:14:15;8.57;;;3.63;;
8482;SDS011;4278;42.668;23.312;2023-08-31T04:16:44;10.90;;;3.40;;
8482;SDS011;4278;42.668;23.312;2023-08-31T04:19:14;7.13;;;3.97;;
8482;SDS011;4278;42.668;23.312;2023-08-31T04:21:41;11.57;;;4.03;;
8482;SDS011;4278;42.668;23.312;2023-08-31T04:24:08;5.13;;;3.60;;
8482;SDS011;4278;42.668;23.312;2023-08-31T04:26:35;6.72;;;3.97;;
8482;SDS011;4278;42.668;23.312;2023-08-31T04:29:02;9.35;;;3.92;;
8482;SDS011;4278;42.668;23.312;2023-08-31T04:31:30;7.65;;;3.53;;
8482;SDS011;4278;42.668;23.312;2023-08-31T04:33:59;8.00;;;4.38;;
8482;SDS011;4278;42.668;23.312;2023-08-31T04:36:26;5.30;;;3.30;;
8482;SDS011;4278;42.668;23.312;2023-08-31T04:38:52;6.50;;;3.17;;
8482;SDS011;4278;42.668;23.312;2023-08-31T04:41:19;6.50;;;4.03;;
8482;SDS011;4278;42.668;23.312;2023-08-31T04:43:46;8.32;;;3.85;;
8482;SDS011;4278;42.668;23.312;2023-08-31T04:46:14;8.70;;;3.20;;
8482;SDS011;4278;42.668;23.312;2023-08-31T04:48:41;12.32;;;3.38;;
8482;SDS011;4278;42.668;23.312;2023-08-31T04:51:09;8.77;;;3.30;;
8482;SDS011;4278;42.668;23.312;2023-08-31T04:53:54;7.10;;;3.42;;
8482;SDS011;4278;42.668;23.312;2023-08-31T04:56:20;6.07;;;3.42;;
8482;SDS011;4278;42.668;23.312;2023-08-31T04:58:47;9.63;;;3.83;;
8482;SDS011;4278;42.668;23.312;2023-08-31T05:01:14;7.18;;;3.72;;
8482;SDS011;4278;42.668;23.312;2023-08-31T05:03:41;6.80;;;3.90;;
8482;SDS011;4278;42.668;23.312;2023-08-31T05:06:09;9.50;;;4.00;;
8482;SDS011;4278;42.668;23.312;2023-08-31T05:08:36;8.25;;;3.40;;
8482;SDS011;4278;42.668;23.312;2023-08-31T05:11:03;4.68;;;3.55;;
8482;SDS011;4278;42.668;23.312;2023-08-31T05:13:30;10.00;;;4.35;;
8482;SDS011;4278;42.668;23.312;2023-08-31T05:15:57;6.88;;;4.45;;
8482;SDS011;4278;42.668;23.312;2023-08-31T05:18:23;9.40;;;6.00;;
8482;SDS011;4278;42.668;23.312;2023-08-31T05:20:50;5.97;;;3.72;;
8482;SDS011;4278;42.668;23.312;2023-08-31T05:23:18;8.57;;;5.10;;
8482;SDS011;4278;42.668;23.312;2023-08-31T05:25:45;6.07;;;3.72;;
8482;SDS011;4278;42.668;23.312;2023-08-31T05:28:12;7.40;;;3.28;;
8482;SDS011;4278;42.668;23.312;2023-08-31T05:30:47;6.90;;;3.30;;
8482;SDS011;4278;42.668;23.312;2023-08-31T05:33:14;7.05;;;3.08;;
8482;SDS011;4278;42.668;23.312;2023-08-31T05:35:41;6.57;;;2.70;;
8482;SDS011;4278;42.668;23.312;2023-08-31T05:38:08;7.28;;;3.10;;
8482;SDS011;4278;42.668;23.312;2023-08-31T05:40:37;5.80;;;3.63;;
8482;SDS011;4278;42.668;23.312;2023-08-31T05:43:04;5.03;;;3.05;;
8482;SDS011;4278;42.668;23.312;2023-08-31T05:45:31;7.47;;;3.17;;
8482;SDS011;4278;42.668;23.312;2023-08-31T05:47:59;4.95;;;2.95;;
8482;SDS011;4278;42.668;23.312;2023-08-31T05:50:26;7.25;;;2.50;;
8482;SDS011;4278;42.668;23.312;2023-08-31T05:52:53;5.93;;;2.92;;
8482;SDS011;4278;42.668;23.312;2023-08-31T05:55:20;6.55;;;3.05;;
8482;SDS011;4278;42.668;23.312;2023-08-31T05:57:49;8.25;;;4.30;;
8482;SDS011;4278;42.668;23.312;2023-08-31T06:00:16;5.50;;;2.72;;
8482;SDS011;4278;42.668;23.312;2023-08-31T06:02:44;7.10;;;3.28;;
8482;SDS011;4278;42.668;23.312;2023-08-31T06:05:11;3.47;;;2.63;;
8482;SDS011;4278;42.668;23.312;2023-08-31T06:07:41;3.65;;;2.78;;
8482;SDS011;4278;42.668;23.312;2023-08-31T06:10:08;6.72;;;2.67;;
8482;SDS011;4278;42.668;23.312;2023-08-31T06:12:35;5.45;;;2.83;;
8482;SDS011;4278;42.668;23.312;2023-08-31T06:15:05;5.90;;;3.08;;
8482;SDS011;4278;42.668;23.312;2023-08-31T06:17:32;7.93;;;2.88;;
8482;SDS011;4278;42.668;23.312;2023-08-31T06:20:00;5.97;;;3.03;;
8482;SDS011;4278;42.668;23.312;2023-08-31T06:22:30;7.57;;;3.33;;
8482;SDS011;4278;42.668;23.312;2023-08-31T06:24:56;10.95;;;3.72;;
8482;SDS011;4278;42.668;23.312;2023-08-31T06:27:23;3.75;;;3.05;;
8482;SDS011;4278;42.668;23.312;2023-08-31T06:29:50;12.45;;;3.22;;
8482;SDS011;4278;42.668;23.312;2023-08-31T06:32:18;6.70;;;3.28;;
8482;SDS011;4278;42.668;23.312;2023-08-31T06:34:46;5.32;;;3.05;;
8482;SDS011;4278;42.668;23.312;2023-08-31T06:37:14;6.40;;;3.33;;
8482;SDS011;4278;42.668;23.312;2023-08-31T06:39:41;7.78;;;3.13;;
8482;SDS011;4278;42.668;23.312;2023-08-31T06:42:08;6.28;;;2.72;;
8482;SDS011;4278;42.668;23.312;2023-08-31T06:44:35;4.57;;;3.22;;
8482;SDS011;4278;42.668;23.312;2023-08-31T06:47:02;6.30;;;3.65;;
8482;SDS011;4278;42.668;23.312;2023-08-31T06:49:31;6.07;;;3.70;;
8482;SDS011;4278;42.668;23.312;2023-08-31T06:51:58;9.65;;;3.53;;
8482;SDS011;4278;42.668;23.312;2023-08-31T06:54:27;9.68;;;3.58;;
8482;SDS011;4278;42.668;23.312;2023-08-31T06:59:21;6.70;;;3.70;;
8482;SDS011;4278;42.668;23.312;2023-08-31T07:11:37;6.90;;;3.45;;
8482;SDS011;4278;42.668;23.312;2023-08-31T07:14:04;8.38;;;3.20;;
8482;SDS011;4278;42.668;23.312;2023-08-31T07:16:34;8.02;;;3.40;;
8482;SDS011;4278;42.668;23.312;2023-08-31T07:19:03;11.13;;;4.00;;
8482;SDS011;4278;42.668;23.312;2023-08-31T07:21:31;9.27;;;3.80;;
8482;SDS011;4278;42.668;23.312;2023-08-31T07:24:02;7.10;;;3.28;;
8482;SDS011;4278;42.668;23.312;2023-08-31T07:26:37;8.50;;;4.10;;
8482;SDS011;4278;42.668;23.312;2023-08-31T07:29:05;11.73;;;3.40;;
8482;SDS011;4278;42.668;23.312;2023-08-31T07:31:32;6.18;;;2.78;;
8482;SDS011;4278;42.668;23.312;2023-08-31T07:34:00;3.55;;;1.90;;
8482;SDS011;4278;42.668;23.312;2023-08-31T07:36:29;5.13;;;2.22;;
8482;SDS011;4278;42.668;23.312;2023-08-31T07:38:58;8.00;;;2.80;;
8482;SDS011;4278;42.668;23.312;2023-08-31T07:41:26;4.97;;;2.03;;
8482;SDS011;4278;42.668;23.312;2023-08-31T07:43:54;8.05;;;2.38;;
8482;SDS011;4278;42.668;23.312;2023-08-31T07:46:21;7.88;;;2.70;;
8482;SDS011;4278;42.668;23.312;2023-08-31T07:48:48;5.20;;;2.17;;
8482;SDS011;4278;42.668;23.312;2023-08-31T07:51:16;8.90;;;2.63;;
8482;SDS011;4278;42.668;23.312;2023-08-31T07:53:43;3.17;;;1.60;;
8482;SDS011;4278;42.668;23.312;2023-08-31T07:56:10;2.85;;;1.52;;
8482;SDS011;4278;42.668;23.312;2023-08-31T07:58:38;3.03;;;1.73;;
8482;SDS011;4278;42.668;23.312;2023-08-31T08:01:05;4.75;;;1.70;;
8482;SDS011;4278;42.668;23.312;2023-08-31T08:03:32;4.10;;;1.67;;
8482;SDS011;4278;42.668;23.312;2023-08-31T08:05:59;5.68;;;1.95;;
8482;SDS011;4278;42.668;23.312;2023-08-31T08:08:26;4.63;;;2.25;;
8482;SDS011;4278;42.668;23.312;2023-08-31T08:10:53;3.42;;;2.38;;
8482;SDS011;4278;42.668;23.312;2023-08-31T08:13:21;3.42;;;2.35;;
8482;SDS011;4278;42.668;23.312;2023-08-31T08:15:49;3.45;;;2.30;;
8482;SDS011;4278;42.668;23.312;2023-08-31T08:18:16;4.38;;;2.80;;
8482;SDS011;4278;42.668;23.312;2023-08-31T08:20:43;6.25;;;4.15;;
8482;SDS011;4278;42.668;23.312;2023-08-31T08:23:14;8.05;;;3.85;;
8482;SDS011;4278;42.668;23.312;2023-08-31T08:25:41;7.97;;;4.90;;
8482;SDS011;4278;42.668;23.312;2023-08-31T08:28:08;5.35;;;3.80;;
8482;SDS011;4278;42.668;23.312;2023-08-31T08:30:34;8.60;;;3.95;;
8482;SDS011;4278;42.668;23.312;2023-08-31T08:33:03;5.28;;;3.63;;
8482;SDS011;4278;42.668;23.312;2023-08-31T08:35:30;6.30;;;3.75;;
8482;SDS011;4278;42.668;23.312;2023-08-31T08:37:57;9.48;;;3.80;;
8482;SDS011;4278;42.668;23.312;2023-08-31T08:40:24;5.78;;;3.58;;
8482;SDS011;4278;42.668;23.312;2023-08-31T08:42:52;6.63;;;3.58;;
8482;SDS011;4278;42.668;23.312;2023-08-31T08:45:19;7.25;;;3.90;;
8482;SDS011;4278;42.668;23.312;2023-08-31T08:47:50;4.57;;;3.35;;
8482;SDS011;4278;42.668;23.312;2023-08-31T08:50:20;7.10;;;3.90;;
8482;SDS011;4278;42.668;23.312;2023-08-31T08:52:48;7.40;;;3.35;;
8482;SDS011;4278;42.668;23.312;2023-08-31T08:55:15;7.13;;;3.97;;
8482;SDS011;4278;42.668;23.312;2023-08-31T08:57:43;7.85;;;4.35;;
8482;SDS011;4278;42.668;23.312;2023-08-31T09:00:11;6.88;;;4.03;;
8482;SDS011;4278;42.668;23.312;2023-08-31T09:02:39;4.35;;;3.47;;
8482;SDS011;4278;42.668;23.312;2023-08-31T09:05:06;4.20;;;3.53;;
8482;SDS011;4278;42.668;23.312;2023-08-31T09:07:36;7.25;;;3.63;;
8482;SDS011;4278;42.668;23.312;2023-08-31T09:10:03;8.40;;;3.42;;
8482;SDS011;4278;42.668;23.312;2023-08-31T09:12:31;4.00;;;3.20;;
8482;SDS011;4278;42.668;23.312;2023-08-31T09:15:03;5.03;;;3.50;;
8482;SDS011;4278;42.668;23.312;2023-08-31T09:17:38;5.05;;;3.60;;
8482;SDS011;4278;42.668;23.312;2023-08-31T09:20:06;5.10;;;3.60;;
8482;SDS011;4278;42.668;23.312;2023-08-31T09:22:35;5.72;;;3.65;;
8482;SDS011;4278;42.668;23.312;2023-08-31T09:25:02;6.35;;;3.55;;
8482;SDS011;4278;42.668;23.312;2023-08-31T09:27:30;5.85;;;3.40;;
8482;SDS011;4278;42.668;23.312;2023-08-31T09:29:58;6.03;;;4.22;;
8482;SDS011;4278;42.668;23.312;2023-08-31T09:32:25;5.53;;;3.03;;
8482;SDS011;4278;42.668;23.312;2023-08-31T09:34:52;4.80;;;3.30;;
8482;SDS011;4278;42.668;23.312;2023-08-31T09:37:18;5.78;;;3.50;;
8482;SDS011;4278;42.668;23.312;2023-08-31T09:39:47;4.25;;;3.22;;
8482;SDS011;4278;42.668;23.312;2023-08-31T09:42:13;6.18;;;3.67;;
8482;SDS011;4278;42.668;23.312;2023-08-31T09:44:41;5.38;;;3.63;;
8482;SDS011;4278;42.668;23.312;2023-08-31T09:47:09;4.72;;;3.40;;
8482;SDS011;4278;42.668;23.312;2023-08-31T09:49:36;6.70;;;3.83;;
8482;SDS011;4278;42.668;23.312;2023-08-31T09:52:06;4.15;;;3.38;;
8482;SDS011;4278;42.668;23.312;2023-08-31T09:54:35;5.53;;;3.35;;
8482;SDS011;4278;42.668;23.312;2023-08-31T09:57:08;6.95;;;3.13;;
8482;SDS011;4278;42.668;23.312;2023-08-31T09:59:35;5.55;;;3.78;;
8482;SDS011;4278;42.668;23.312;2023-08-31T10:02:04;5.20;;;3.85;;
8482;SDS011;4278;42.668;23.312;2023-08-31T10:04:32;5.80;;;4.13;;
8482;SDS011;4278;42.668;23.312;2023-08-31T10:07:02;5.10;;;3.90;;
8482;SDS011;4278;42.668;23.312;2023-08-31T10:09:30;6.20;;;3.50;;
8482;SDS011;4278;42.668;23.312;2023-08-31T10:11:58;6.50;;;4.22;;
8482;SDS011;4278;42.668;23.312;2023-08-31T10:14:27;5.82;;;3.97;;
8482;SDS011;4278;42.668;23.312;2023-08-31T10:16:55;5.85;;;3.45;;
8482;SDS011;4278;42.668;23.312;2023-08-31T10:19:24;6.45;;;3.92;;
8482;SDS011;4278;42.668;23.312;2023-08-31T10:21:50;5.53;;;3.97;;
8482;SDS011;4278;42.668;23.312;2023-08-31T10:24:17;7.00;;;4.35;;
8482;SDS011;4278;42.668;23.312;2023-08-31T10:26:44;7.40;;;3.63;;
8482;SDS011;4278;42.668;23.312;2023-08-31T10:29:25;7.72;;;3.78;;
8482;SDS011;4278;42.668;23.312;2023-08-31T10:31:54;6.47;;;3.80;;
8482;SDS011;4278;42.668;23.312;2023-08-31T10:34:33;5.78;;;4.13;;
8482;SDS011;4278;42.668;23.312;2023-08-31T10:37:01;7.63;;;4.55;;
8482;SDS011;4278;42.668;23.312;2023-08-31T10:39:36;5.60;;;3.80;;
8482;SDS011;4278;42.668;23.312;2023-08-31T10:42:04;5.78;;;3.85;;
8482;SDS011;4278;42.668;23.312;2023-08-31T10:44:32;5.35;;;4.28;;
8482;SDS011;4278;42.668;23.312;2023-08-31T10:47:02;5.78;;;4.18;;
8482;SDS011;4278;42.668;23.312;2023-08-31T10:49:30;6.28;;;3.78;;
8482;SDS011;4278;42.668;23.312;2023-08-31T10:54:42;5.22;;;3.30;;
8482;SDS011;4278;42.668;23.312;2023-08-31T10:57:09;5.88;;;3.67;;
8482;SDS011;4278;42.668;23.312;2023-08-31T10:59:47;7.10;;;3.63;;
8482;SDS011;4278;42.668;23.312;2023-08-31T11:02:28;5.50;;;3.30;;
8482;SDS011;4278;42.668;23.312;2023-08-31T11:04:59;5.57;;;3.60;;
8482;SDS011;4278;42.668;23.312;2023-08-31T11:07:29;5.53;;;3.40;;
8482;SDS011;4278;42.668;23.312;2023-08-31T11:10:06;5.45;;;3.58;;
8482;SDS011;4278;42.668;23.312;2023-08-31T11:12:40;5.47;;;3.53;;
8482;SDS011;4278;42.668;23.312;2023-08-31T11:15:10;7.57;;;3.58;;
8482;SDS011;4278;42.668;23.312;2023-08-31T11:17:37;12.80;;;4.03;;
8482;SDS011;4278;42.668;23.312;2023-08-31T11:20:06;4.65;;;3.72;;
8482;SDS011;4278;42.668;23.312;2023-08-31T11:22:34;4.20;;;3.25;;
8482;SDS011;4278;42.668;23.312;2023-08-31T11:25:04;5.03;;;3.55;;
8482;SDS011;4278;42.668;23.312;2023-08-31T11:27:32;5.47;;;3.42;;
8482;SDS011;4278;42.668;23.312;2023-08-31T11:29:59;5.47;;;3.15;;
8482;SDS011;4278;42.668;23.312;2023-08-31T11:32:27;4.75;;;3.45;;
8482;SDS011;4278;42.668;23.312;2023-08-31T11:34:54;4.85;;;3.53;;
8482;SDS011;4278;42.668;23.312;2023-08-31T11:37:21;5.97;;;3.80;;
8482;SDS011;4278;42.668;23.312;2023-08-31T11:39:49;4.55;;;3.03;;
8482;SDS011;4278;42.668;23.312;2023-08-31T11:42:17;4.60;;;3.10;;
8482;SDS011;4278;42.668;23.312;2023-08-31T11:44:44;7.05;;;3.40;;
8482;SDS011;4278;42.668;23.312;2023-08-31T11:47:12;10.52;;;3.33;;
8482;SDS011;4278;42.668;23.312;2023-08-31T11:49:41;4.78;;;3.15;;
8482;SDS011;4278;42.668;23.312;2023-08-31T11:52:09;5.50;;;3.35;;
8482;SDS011;4278;42.668;23.312;2023-08-31T11:54:37;3.70;;;2.53;;
8482;SDS011;4278;42.668;23.312;2023-08-31T11:57:06;4.85;;;3.10;;
8482;SDS011;4278;42.668;23.312;2023-08-31T11:59:34;5.05;;;2.78;;
8482;SDS011;4278;42.668;23.312;2023-08-31T12:02:02;5.28;;;2.78;;
8482;SDS011;4278;42.668;23.312;2023-08-31T12:04:32;6.03;;;3.00;;
8482;SDS011;4278;42.668;23.312;2023-08-31T12:07:02;3.65;;;2.50;;
8482;SDS011;4278;42.668;23.312;2023-08-31T12:09:31;4.65;;;3.00;;
8482;SDS011;4278;42.668;23.312;2023-08-31T12:11:59;5.07;;;2.90;;
8482;SDS011;4278;42.668;23.312;2023-08-31T12:14:26;5.90;;;2.97;;
8482;SDS011;4278;42.668;23.312;2023-08-31T12:17:00;5.28;;;3.03;;
8482;SDS011;4278;42.668;23.312;2023-08-31T12:19:28;5.65;;;3.03;;
8482;SDS011;4278;42.668;23.312;2023-08-31T12:21:56;5.55;;;3.58;;
8482;SDS011;4278;42.668;23.312;2023-08-31T12:24:24;5.40;;;3.05;;
8482;SDS011;4278;42.668;23.312;2023-08-31T12:26:52;5.53;;;2.90;;
8482;SDS011;4278;42.668;23.312;2023-08-31T12:29:20;5.18;;;2.95;;
8482;SDS011;4278;42.668;23.312;2023-08-31T12:31:47;5.13;;;3.22;;
8482;SDS011;4278;42.668;23.312;2023-08-31T12:34:15;5.60;;;3.25;;
8482;SDS011;4278;42.668;23.312;2023-08-31T12:36:42;6.18;;;3.03;;
8482;SDS011;4278;42.668;23.312;2023-08-31T12:39:09;4.03;;;2.78;;
8482;SDS011;4278;42.668;23.312;2023-08-31T12:41:38;5.40;;;2.85;;
8482;SDS011;4278;42.668;23.312;2023-08-31T12:44:06;4.90;;;2.90;;
8482;SDS011;4278;42.668;23.312;2023-08-31T12:46:33;4.72;;;2.63;;
8482;SDS011;4278;42.668;23.312;2023-08-31T12:49:00;4.97;;;2.97;;
8482;SDS011;4278;42.668;23.312;2023-08-31T12:51:28;6.32;;;3.05;;
8482;SDS011;4278;42.668;23.312;2023-08-31T12:53:55;4.25;;;2.97;;
8482;SDS011;4278;42.668;23.312;2023-08-31T12:56:22;4.97;;;2.83;;
8482;SDS011;4278;42.668;23.312;2023-08-31T12:58:51;5.38;;;2.63;;
8482;SDS011;4278;42.668;23.312;2023-08-31T13:01:18;5.57;;;3.50;;
8482;SDS011;4278;42.668;23.312;2023-08-31T13:03:48;6.18;;;3.25;;
8482;SDS011;4278;42.668;23.312;2023-08-31T13:06:15;5.22;;;2.85;;
8482;SDS011;4278;42.668;23.312;2023-08-31T13:08:42;6.35;;;3.13;;
8482;SDS011;4278;42.668;23.312;2023-08-31T13:11:10;6.85;;;3.00;;
8482;SDS011;4278;42.668;23.312;2023-08-31T13:13:37;4.57;;;2.80;;
8482;SDS011;4278;42.668;23.312;2023-08-31T13:16:06;3.92;;;2.67;;
8482;SDS011;4278;42.668;23.312;2023-08-31T13:18:33;4.60;;;2.65;;
8482;SDS011;4278;42.668;23.312;2023-08-31T13:21:00;6.55;;;2.85;;
8482;SDS011;4278;42.668;23.312;2023-08-31T13:23:28;5.35;;;2.83;;
8482;SDS011;4278;42.668;23.312;2023-08-31T13:25:55;6.50;;;2.78;;
8482;SDS011;4278;42.668;23.312;2023-08-31T13:28:22;5.78;;;2.80;;
8482;SDS011;4278;42.668;23.312;2023-08-31T13:30:49;4.20;;;3.00;;
8482;SDS011;4278;42.668;23.312;2023-08-31T13:33:18;6.10;;;3.00;;
8482;SDS011;4278;42.668;23.312;2023-08-31T13:35:45;6.25;;;2.80;;
8482;SDS011;4278;42.668;23.312;2023-08-31T13:38:12;8.30;;;2.47;;
8482;SDS011;4278;42.668;23.312;2023-08-31T13:40:39;5.85;;;2.55;;
8482;SDS011;4278;42.668;23.312;2023-08-31T13:43:07;4.07;;;2.40;;
8482;SDS011;4278;42.668;23.312;2023-08-31T13:45:33;4.65;;;3.00;;
8482;SDS011;4278;42.668;23.312;2023-08-31T13:48:00;5.50;;;3.20;;
8482;SDS011;4278;42.668;23.312;2023-08-31T13:50:30;4.25;;;2.92;;
8482;SDS011;4278;42.668;23.312;2023-08-31T13:52:57;5.40;;;2.50;;
8482;SDS011;4278;42.668;23.312;2023-08-31T13:55:24;5.78;;;2.85;;
8482;SDS011;4278;42.668;23.312;2023-08-31T13:57:52;9.57;;;3.20;;
8482;SDS011;4278;42.668;23.312;2023-08-31T14:00:19;5.85;;;2.75;;
8482;SDS011;4278;42.668;23.312;2023-08-31T14:02:46;5.38;;;2.80;;
8482;SDS011;4278;42.668;23.312;2023-08-31T14:05:13;5.63;;;2.95;;
8482;SDS011;4278;42.668;23.312;2023-08-31T14:07:42;5.50;;;2.67;;
8482;SDS011;4278;42.668;23.312;2023-08-31T14:10:09;5.57;;;3.00;;
8482;SDS011;4278;42.668;23.312;2023-08-31T14:12:35;7.03;;;3.30;;
8482;SDS011;4278;42.668;23.312;2023-08-31T14:15:03;6.93;;;2.70;;
8482;SDS011;4278;42.668;23.312;2023-08-31T14:17:32;7.03;;;3.35;;
8482;SDS011;4278;42.668;23.312;2023-08-31T14:19:59;3.78;;;2.67;;
8482;SDS011;4278;42.668;23.312;2023-08-31T15:46:31;3.78;;;2.50;;
8482;SDS011;4278;42.668;23.312;2023-08-31T15:51:27;6.50;;;2.90;;
8482;SDS011;4278;42.668;23.312;2023-08-31T15:53:59;5.18;;;2.60;;
8482;SDS011;4278;42.668;23.312;2023-08-31T15:56:37;3.50;;;2.55;;
8482;SDS011;4278;42.668;23.312;2023-08-31T15:59:05;3.70;;;2.53;;
8482;SDS011;4278;42.668;23.312;2023-08-31T16:01:32;3.67;;;2.60;;
8482;SDS011;4278;42.668;23.312;2023-08-31T16:04:00;4.07;;;2.80;;
8482;SDS011;4278;42.668;23.312;2023-08-31T16:06:28;4.03;;;2.90;;
8482;SDS011;4278;42.668;23.312;2023-08-31T16:08:55;4.50;;;2.88;;
8482;SDS011;4278;42.668;23.312;2023-08-31T16:11:24;3.17;;;2.47;;
8482;SDS011;4278;42.668;23.312;2023-08-31T16:13:50;5.15;;;2.88;;
8482;SDS011;4278;42.668;23.312;2023-08-31T16:16:21;3.28;;;2.58;;
8482;SDS011;4278;42.668;23.312;2023-08-31T16:18:48;3.72;;;2.60;;
8482;SDS011;4278;42.668;23.312;2023-08-31T16:21:17;6.28;;;2.83;;
8482;SDS011;4278;42.668;23.312;2023-08-31T16:23:44;6.07;;;2.85;;
8482;SDS011;4278;42.668;23.312;2023-08-31T16:26:10;3.85;;;2.63;;
8482;SDS011;4278;42.668;23.312;2023-08-31T16:28:37;5.28;;;3.00;;
8482;SDS011;4278;42.668;23.312;2023-08-31T16:31:04;4.07;;;2.50;;
8482;SDS011;4278;42.668;23.312;2023-08-31T16:33:31;3.88;;;2.78;;
8482;SDS011;4278;42.668;23.312;2023-08-31T16:35:58;6.70;;;3.15;;
8482;SDS011;4278;42.668;23.312;2023-08-31T16:38:26;4.07;;;2.80;;
8482;SDS011;4278;42.668;23.312;2023-08-31T16:48:13;5.50;;;2.60;;
8482;SDS011;4278;42.668;23.312;2023-08-31T16:50:40;4.85;;;2.63;;
8482;SDS011;4278;42.668;23.312;2023-08-31T16:53:07;5.25;;;2.85;;
8482;SDS011;4278;42.668;23.312;2023-08-31T17:00:30;4.38;;;2.90;;
8482;SDS011;4278;42.668;23.312;2023-08-31T17:02:58;5.35;;;3.08;;
8482;SDS011;4278;42.668;23.312;2023-08-31T17:05:27;3.70;;;2.60;;
8482;SDS011;4278;42.668;23.312;2023-08-31T17:07:54;4.60;;;2.40;;
8482;SDS011;4278;42.668;23.312;2023-08-31T17:10:20;4.40;;;2.30;;
8482;SDS011;4278;42.668;23.312;2023-08-31T17:12:49;3.55;;;2.83;;
8482;SDS011;4278;42.668;23.312;2023-08-31T17:15:17;4.45;;;2.40;;
8482;SDS011;4278;42.668;23.312;2023-08-31T17:17:44;3.45;;;2.53;;
8482;SDS011;4278;42.668;23.312;2023-08-31T17:20:11;3.45;;;2.35;;
8482;SDS011;4278;42.668;23.312;2023-08-31T17:22:41;3.88;;;2.40;;
8482;SDS011;4278;42.668;23.312;2023-08-31T17:25:08;3.70;;;2.08;;
8482;SDS011;4278;42.668;23.312;2023-08-31T17:27:35;3.40;;;2.70;;
8482;SDS011;4278;42.668;23.312;2023-08-31T17:30:04;3.50;;;2.50;;
8482;SDS011;4278;42.668;23.312;2023-08-31T17:32:32;3.65;;;2.58;;
8482;SDS011;4278;42.668;23.312;2023-08-31T17:34:59;3.95;;;2.55;;
8482;SDS011;4278;42.668;23.312;2023-08-31T17:37:28;2.83;;;2.45;;
8482;SDS011;4278;42.668;23.312;2023-08-31T17:39:55;4.03;;;2.85;;
8482;SDS011;4278;42.668;23.312;2023-08-31T17:42:22;4.40;;;2.42;;
8482;SDS011;4278;42.668;23.312;2023-08-31T17:44:49;5.70;;;2.85;;
8482;SDS011;4278;42.668;23.312;2023-08-31T17:47:17;4.03;;;2.95;;
8482;SDS011;4278;42.668;23.312;2023-08-31T17:49:45;4.65;;;2.85;;
8482;SDS011;4278;42.668;23.312;2023-08-31T17:52:11;4.90;;;2.75;;
8482;SDS011;4278;42.668;23.312;2023-08-31T17:54:38;5.00;;;2.78;;
8482;SDS011;4278;42.668;23.312;2023-08-31T17:57:05;5.53;;;2.92;;
8482;SDS011;4278;42.668;23.312;2023-08-31T17:59:32;5.28;;;2.63;;
8482;SDS011;4278;42.668;23.312;2023-08-31T18:01:59;6.03;;;2.65;;
8482;SDS011;4278;42.668;23.312;2023-08-31T18:04:29;4.97;;;2.80;;
8482;SDS011;4278;42.668;23.312;2023-08-31T18:06:56;5.18;;;2.92;;
8482;SDS011;4278;42.668;23.312;2023-08-31T18:09:23;4.50;;;2.70;;
8482;SDS011;4278;42.668;23.312;2023-08-31T18:11:54;4.03;;;2.80;;
8482;SDS011;4278;42.668;23.312;2023-08-31T18:14:21;4.75;;;2.58;;
8482;SDS011;4278;42.668;23.312;2023-08-31T18:16:48;4.38;;;2.92;;
8482;SDS011;4278;42.668;23.312;2023-08-31T18:19:15;5.75;;;3.20;;
8482;SDS011;4278;42.668;23.312;2023-08-31T18:21:43;5.70;;;3.40;;